createdAt,value
2022-12-18T00:01:24.346Z,11.70
2022-12-18T00:03:53.074Z,10.75
2022-12-18T00:06:21.268Z,11.52
2022-12-18T00:08:49.193Z,12.57
2022-12-18T00:11:20.087Z,12.23
2022-12-18T00:13:47.750Z,14.40
2022-12-18T00:16:17.818Z,13.32
2022-12-18T00:18:45.045Z,11.77
2022-12-18T00:21:13.652Z,12.75
2022-12-18T00:23:43.295Z,12.02
2022-12-18T00:26:16.694Z,13.40
2022-12-18T00:28:44.644Z,11.85
2022-12-18T00:31:13.901Z,12.68
2022-12-18T00:36:17.056Z,14.18
2022-12-18T00:38:45.338Z,14.00
2022-12-18T00:41:13.787Z,14.27
2022-12-18T00:43:41.367Z,12.88
2022-12-18T00:46:08.743Z,14.98
2022-12-18T00:48:36.731Z,12.60
2022-12-18T00:51:03.852Z,11.02
2022-12-18T00:53:30.975Z,14.32
2022-12-18T00:55:58.075Z,13.68
2022-12-18T00:58:25.142Z,12.02
2022-12-18T01:00:52.408Z,11.75
2022-12-18T01:03:19.370Z,11.45
2022-12-18T01:05:46.383Z,14.30
2022-12-18T01:08:13.508Z,12.90
2022-12-18T01:10:43.584Z,14.05
2022-12-18T01:13:10.646Z,14.48
2022-12-18T01:15:37.700Z,14.55
2022-12-18T01:18:06.870Z,15.15
2022-12-18T01:20:34.015Z,12.52
2022-12-18T01:23:01.234Z,14.18
2022-12-18T01:25:28.292Z,12.68
2022-12-18T01:27:55.276Z,13.45
2022-12-18T01:30:22.219Z,16.75
2022-12-18T01:32:49.117Z,12.77
2022-12-18T01:35:18.841Z,13.90
2022-12-18T01:37:47.333Z,16.77
2022-12-18T01:40:14.312Z,14.70
2022-12-18T01:42:41.560Z,15.35
2022-12-18T01:45:17.549Z,15.90
2022-12-18T01:47:54.192Z,15.40
2022-12-18T01:50:23.453Z,13.55
2022-12-18T01:52:57.451Z,15.23
2022-12-18T01:55:29.019Z,12.65
2022-12-18T01:57:58.531Z,13.55
2022-12-18T02:02:53.742Z,14.18
2022-12-18T02:05:30.887Z,17.15
2022-12-18T02:08:24.566Z,12.88
2022-12-18T02:11:19.879Z,16.90
2022-12-18T02:13:59.188Z,15.07
2022-12-18T02:16:34.922Z,15.38
2022-12-18T02:19:26.237Z,13.10
2022-12-18T02:21:56.185Z,15.25
2022-12-18T02:24:44.134Z,15.00
2022-12-18T02:27:12.850Z,13.70
2022-12-18T02:29:58.341Z,13.55
2022-12-18T02:32:32.933Z,15.38
2022-12-18T02:35:02.275Z,12.30
2022-12-18T02:37:32.451Z,11.43
2022-12-18T02:40:04.839Z,12.80
2022-12-18T02:42:33.727Z,13.45
2022-12-18T02:45:02.148Z,12.85
2022-12-18T02:47:39.257Z,14.32
2022-12-18T02:50:16.513Z,16.02
2022-12-18T02:53:05.979Z,13.15
2022-12-18T02:55:33.670Z,13.93
2022-12-18T02:58:21.984Z,13.10
2022-12-18T03:01:19.716Z,13.43
2022-12-18T03:03:58.534Z,14.43
2022-12-18T03:06:38.307Z,15.00
2022-12-18T03:09:18.733Z,16.67
2022-12-18T03:12:10.610Z,14.40
2022-12-18T03:14:39.640Z,15.18
2022-12-18T03:17:13.485Z,13.00
2022-12-18T03:19:42.453Z,13.52
2022-12-18T03:22:11.173Z,15.95
2022-12-18T03:24:47.392Z,14.07
2022-12-18T03:27:19.320Z,14.85
2022-12-18T03:29:54.388Z,14.38
2022-12-18T03:32:30.604Z,15.32
2022-12-18T03:35:03.748Z,17.10
2022-12-18T03:37:34.122Z,13.85
2022-12-18T03:40:01.360Z,14.43
2022-12-18T03:42:38.093Z,15.57
2022-12-18T03:45:34.163Z,15.40
2022-12-18T03:48:24.519Z,14.48
2022-12-18T03:53:27.455Z,13.77
2022-12-18T03:55:56.212Z,15.15
2022-12-18T03:58:30.014Z,15.02
2022-12-18T04:01:10.151Z,13.68
2022-12-18T04:03:39.459Z,14.13
2022-12-18T04:06:08.757Z,15.93
2022-12-18T04:08:36.194Z,14.05
2022-12-18T04:11:07.013Z,14.85
2022-12-18T04:13:39.898Z,14.05
2022-12-18T04:16:12.185Z,16.58
2022-12-18T04:18:42.602Z,14.23
2022-12-18T04:21:11.220Z,17.42
2022-12-18T04:23:38.881Z,15.20
2022-12-18T04:26:07.649Z,15.45
2022-12-18T04:28:50.004Z,15.38
2022-12-18T04:31:17.057Z,16.33
2022-12-18T04:33:44.181Z,16.73
2022-12-18T04:36:13.357Z,16.25
2022-12-18T04:38:41.482Z,15.77
2022-12-18T04:41:13.816Z,18.35
2022-12-18T04:43:42.765Z,17.02
2022-12-18T04:46:10.617Z,16.98
2022-12-18T04:48:38.299Z,16.33
2022-12-18T04:51:08.522Z,16.35
2022-12-18T04:53:35.741Z,17.33
2022-12-18T04:56:08.244Z,19.08
2022-12-18T04:58:35.504Z,19.63
2022-12-18T05:01:02.998Z,16.15
2022-12-18T05:03:30.602Z,17.88
2022-12-18T05:05:57.661Z,21.33
2022-12-18T05:08:24.722Z,24.45
2022-12-18T05:11:00.214Z,22.85
2022-12-18T05:13:27.825Z,21.63
2022-12-18T05:15:55.805Z,20.92
2022-12-18T05:18:27.218Z,21.08
2022-12-18T05:20:54.840Z,19.10
2022-12-18T05:23:23.657Z,20.40
2022-12-18T05:26:01.652Z,22.25
2022-12-18T05:28:30.456Z,19.70
2022-12-18T05:30:59.853Z,23.02
2022-12-18T05:35:59.790Z,21.45
2022-12-18T05:38:28.817Z,20.73
2022-12-18T05:40:55.784Z,19.98
2022-12-18T05:43:26.208Z,21.85
2022-12-18T05:45:54.321Z,20.58
2022-12-18T05:48:22.082Z,19.17
2022-12-18T05:50:52.687Z,20.10
2022-12-18T05:53:21.390Z,23.30
2022-12-18T05:55:48.939Z,24.35
2022-12-18T05:58:16.917Z,25.77
2022-12-18T06:00:46.898Z,21.33
2022-12-18T06:03:14.739Z,23.85
2022-12-18T06:05:44.465Z,23.15
2022-12-18T06:10:38.929Z,24.55
2022-12-18T06:13:06.766Z,25.60
2022-12-18T06:15:34.578Z,26.05
2022-12-18T06:18:02.478Z,23.88
2022-12-18T06:20:33.386Z,23.75
2022-12-18T06:23:01.186Z,22.55
2022-12-18T06:25:28.296Z,22.42
2022-12-18T06:27:55.601Z,26.15
2022-12-18T06:30:22.864Z,23.27
2022-12-18T06:32:56.294Z,24.45
2022-12-18T06:35:24.373Z,21.08
2022-12-18T06:37:51.840Z,25.08
2022-12-18T06:40:19.541Z,24.50
2022-12-18T06:42:46.471Z,25.27
2022-12-18T06:45:16.546Z,23.17
2022-12-18T06:47:43.679Z,23.92
2022-12-18T06:50:11.025Z,25.08
2022-12-18T06:52:38.196Z,25.27
2022-12-18T06:55:06.141Z,25.13
2022-12-18T06:57:36.466Z,20.38
2022-12-18T07:00:05.450Z,25.92
2022-12-18T07:05:00.181Z,23.33
2022-12-18T07:07:27.258Z,23.58
2022-12-18T07:09:54.300Z,22.70
2022-12-18T07:12:21.275Z,25.40
2022-12-18T07:14:48.201Z,24.95
2022-12-18T07:17:15.173Z,22.20
2022-12-18T07:19:42.213Z,21.98
2022-12-18T07:22:09.722Z,22.33
2022-12-18T07:24:37.101Z,25.73
2022-12-18T07:27:04.352Z,25.70
2022-12-18T07:29:31.932Z,23.48
2022-12-18T07:31:58.889Z,28.08
2022-12-18T07:34:25.895Z,25.45
2022-12-18T07:36:53.162Z,26.88
2022-12-18T07:39:20.141Z,25.38
2022-12-18T07:42:07.337Z,26.40
2022-12-18T07:44:34.561Z,27.45
2022-12-18T07:47:09.007Z,28.58
2022-12-18T07:49:38.938Z,29.55
2022-12-18T07:52:06.022Z,30.20
2022-12-18T07:54:32.998Z,30.02
2022-12-18T07:57:00.923Z,26.35
2022-12-18T07:59:27.858Z,29.77
2022-12-18T08:01:55.021Z,30.98
2022-12-18T08:04:22.015Z,31.92
2022-12-18T08:06:49.312Z,34.13
2022-12-18T08:09:16.323Z,28.30
2022-12-18T08:11:43.661Z,28.70
2022-12-18T08:14:10.915Z,32.30
2022-12-18T08:16:38.047Z,29.58
2022-12-18T08:19:05.065Z,30.88
2022-12-18T08:21:33.009Z,33.42
2022-12-18T08:24:01.922Z,30.63
2022-12-18T08:26:31.327Z,31.00
2022-12-18T08:29:00.610Z,26.83
2022-12-18T08:33:56.807Z,35.10
2022-12-18T08:36:27.417Z,29.80
2022-12-18T08:38:55.020Z,30.08
2022-12-18T08:41:22.594Z,33.85
2022-12-18T08:44:09.101Z,33.33
2022-12-18T08:46:39.185Z,31.95
2022-12-18T08:49:08.107Z,33.70
2022-12-18T08:51:35.677Z,28.30
2022-12-18T08:54:03.438Z,32.10
2022-12-18T08:59:00.431Z,34.17
2022-12-18T09:01:39.629Z,31.98
2022-12-18T09:04:07.057Z,25.17
2022-12-18T09:06:35.239Z,29.77
2022-12-18T09:09:04.436Z,38.63
2022-12-18T09:11:35.999Z,29.50
2022-12-18T09:14:03.053Z,27.65
2022-12-18T09:16:32.723Z,29.45
2022-12-18T09:19:41.797Z,25.65
2022-12-18T09:22:10.698Z,27.50
2022-12-18T09:24:37.743Z,24.98
2022-12-18T09:27:04.889Z,28.13
2022-12-18T09:29:32.057Z,27.10
2022-12-18T09:32:09.718Z,26.08
2022-12-18T09:34:37.291Z,30.95
2022-12-18T09:37:04.175Z,30.65
2022-12-18T09:39:31.122Z,29.85
2022-12-18T09:41:59.973Z,27.30
2022-12-18T09:44:32.165Z,28.20
2022-12-18T09:47:24.495Z,27.75
2022-12-18T09:49:55.857Z,26.25
2022-12-18T09:52:57.547Z,35.20
2022-12-18T09:55:41.658Z,53.00
2022-12-18T09:58:26.575Z,26.63
2022-12-18T10:00:55.413Z,30.50
2022-12-18T10:03:22.857Z,21.70
2022-12-18T10:06:08.883Z,26.30
2022-12-18T10:08:54.503Z,26.73
2022-12-18T10:11:35.929Z,30.10
2022-12-18T10:14:42.473Z,26.73
2022-12-18T10:17:34.498Z,31.58
2022-12-18T10:20:26.578Z,23.73
2022-12-18T10:23:17.931Z,28.38
2022-12-18T10:25:56.979Z,25.33
2022-12-18T10:28:24.774Z,24.23
2022-12-18T10:30:51.735Z,25.35
2022-12-18T10:33:22.696Z,27.23
2022-12-18T10:35:53.862Z,27.25
2022-12-18T10:38:23.918Z,27.58
2022-12-18T10:41:00.626Z,28.63
2022-12-18T10:43:39.812Z,24.80
2022-12-18T10:48:53.087Z,24.77
2022-12-18T10:51:31.688Z,27.08
2022-12-18T10:54:14.493Z,27.30
2022-12-18T10:56:42.556Z,25.83
2022-12-18T10:59:14.553Z,29.67
2022-12-18T11:01:56.581Z,31.38
2022-12-18T11:04:27.248Z,26.20
2022-12-18T11:07:06.644Z,24.42
2022-12-18T11:12:16.854Z,25.33
2022-12-18T11:14:48.268Z,23.23
2022-12-18T11:17:36.553Z,24.33
2022-12-18T11:20:10.667Z,25.02
2022-12-18T11:22:39.522Z,32.13
2022-12-18T11:25:35.621Z,25.88
2022-12-18T11:28:44.226Z,27.88
2022-12-18T11:31:23.349Z,28.20
2022-12-18T11:34:27.329Z,28.25
2022-12-18T11:36:47.808Z,29.05
2022-12-18T11:39:44.038Z,25.10
2022-12-18T11:42:36.857Z,25.77
2022-12-18T11:45:30.173Z,29.27
2022-12-18T11:48:13.862Z,26.52
2022-12-18T11:51:01.466Z,28.05
2022-12-18T11:53:31.478Z,23.25
2022-12-18T11:56:03.755Z,25.52
2022-12-18T11:58:40.338Z,25.30
2022-12-18T12:01:15.459Z,27.90
2022-12-18T12:04:16.119Z,29.80
2022-12-18T12:07:15.995Z,30.35
2022-12-18T12:10:08.931Z,28.67
2022-12-18T12:12:52.477Z,27.73
2022-12-18T12:15:38.901Z,29.45
2022-12-18T12:18:21.320Z,27.23
2022-12-18T12:21:42.175Z,27.90
2022-12-18T12:24:43.261Z,26.20
2022-12-18T12:27:28.373Z,26.08
2022-12-18T12:30:14.171Z,26.92
2022-12-18T12:33:11.514Z,27.30
2022-12-18T12:35:41.829Z,29.77
2022-12-18T12:38:15.847Z,28.48
2022-12-18T12:40:55.272Z,26.38
2022-12-18T12:43:49.391Z,31.73
2022-12-18T12:46:22.379Z,31.02
2022-12-18T12:49:08.849Z,28.38
2022-12-18T12:52:06.553Z,27.70
2022-12-18T12:54:34.907Z,27.05
2022-12-18T12:57:11.245Z,28.25
2022-12-18T12:59:52.200Z,30.40
2022-12-18T13:02:24.207Z,31.38
2022-12-18T13:05:14.771Z,30.65
2022-12-18T13:08:01.896Z,27.65
2022-12-18T13:10:38.851Z,26.85
2022-12-18T13:13:11.095Z,28.30
2022-12-18T13:15:46.261Z,28.48
2022-12-18T13:18:54.291Z,28.52
2022-12-18T13:21:28.370Z,25.83
2022-12-18T13:23:56.761Z,26.58
2022-12-18T13:26:28.764Z,27.13
2022-12-18T13:28:57.632Z,28.45
2022-12-18T13:31:24.896Z,26.53
2022-12-18T13:34:26.158Z,28.70
2022-12-18T13:36:56.598Z,31.98
2022-12-18T13:42:07.887Z,35.90
2022-12-18T13:44:46.326Z,28.98
2022-12-18T13:47:34.726Z,28.48
2022-12-18T13:50:11.019Z,30.43
2022-12-18T13:52:40.765Z,30.92
2022-12-18T13:55:19.114Z,29.02
2022-12-18T13:57:47.122Z,28.63
2022-12-18T14:00:25.795Z,29.98
2022-12-18T14:02:53.579Z,25.80
2022-12-18T14:05:37.196Z,29.05
2022-12-18T14:08:15.999Z,28.08
2022-12-18T14:10:48.657Z,32.55
2022-12-18T14:13:29.506Z,30.48
2022-12-18T14:15:57.444Z,28.27
2022-12-18T14:18:32.017Z,33.15
2022-12-18T14:21:34.346Z,30.40
2022-12-18T14:24:23.285Z,31.20
2022-12-18T14:26:51.740Z,26.85
2022-12-18T14:29:27.600Z,25.65
2022-12-18T14:32:16.515Z,25.33
2022-12-18T14:34:51.424Z,29.95
2022-12-18T14:37:25.475Z,38.75
2022-12-18T14:40:11.483Z,22.27
2022-12-18T14:42:39.959Z,27.85
2022-12-18T14:45:41.073Z,24.75
2022-12-18T14:48:42.640Z,28.67
2022-12-18T14:51:24.825Z,24.88
2022-12-18T14:54:01.594Z,25.58
2022-12-18T14:56:37.148Z,25.45
2022-12-18T14:59:07.046Z,25.55
2022-12-18T15:01:40.567Z,24.25
2022-12-18T15:04:30.493Z,22.80
2022-12-18T15:07:24.578Z,22.75
2022-12-18T15:10:13.241Z,23.00
2022-12-18T15:12:50.653Z,23.40
2022-12-18T15:15:48.161Z,25.17
2022-12-18T15:18:18.875Z,26.17
2022-12-18T15:21:00.706Z,24.88
2022-12-18T15:23:34.011Z,28.02
2022-12-18T15:26:11.477Z,21.15
2022-12-18T15:29:04.284Z,22.13
2022-12-18T15:31:32.765Z,25.10
2022-12-18T15:34:11.358Z,29.93
2022-12-18T15:37:03.235Z,21.38
2022-12-18T15:39:30.394Z,26.23
2022-12-18T15:42:15.906Z,22.77
2022-12-18T15:44:44.694Z,25.48
2022-12-18T15:47:14.011Z,23.83
2022-12-18T15:52:14.498Z,24.42
2022-12-18T15:54:59.998Z,27.20
2022-12-18T15:57:29.385Z,24.67
2022-12-18T16:00:00.386Z,26.50
2022-12-18T16:02:29.025Z,24.67
2022-12-18T16:04:56.116Z,27.45
2022-12-18T16:07:26.056Z,29.95
2022-12-18T16:09:55.444Z,29.33
2022-12-18T16:12:25.381Z,29.17
2022-12-18T16:14:52.351Z,28.52
2022-12-18T16:17:29.730Z,27.45
2022-12-18T16:20:05.655Z,28.50
2022-12-18T16:22:33.205Z,26.20
2022-12-18T16:25:00.156Z,29.27
2022-12-18T16:27:27.314Z,29.67
2022-12-18T16:29:54.387Z,27.40
2022-12-18T16:32:23.620Z,27.75
2022-12-18T16:34:52.015Z,32.10
2022-12-18T16:37:19.141Z,27.27
2022-12-18T16:39:46.839Z,31.83
2022-12-18T16:42:17.902Z,35.10
2022-12-18T16:44:46.674Z,32.08
2022-12-18T16:47:15.701Z,29.30
2022-12-18T16:49:45.385Z,32.75
2022-12-18T16:52:26.822Z,31.23
2022-12-18T16:54:53.880Z,32.10
2022-12-18T16:57:23.541Z,28.33
2022-12-18T16:59:53.103Z,30.65
2022-12-18T17:02:25.937Z,29.10
2022-12-18T17:04:56.221Z,25.80
2022-12-18T17:07:24.103Z,29.88
2022-12-18T17:09:51.319Z,28.23
2022-12-18T17:12:18.494Z,29.10
2022-12-18T17:14:45.438Z,28.98
2022-12-18T17:17:21.382Z,29.15
2022-12-18T17:19:49.675Z,30.95
2022-12-18T17:22:16.620Z,30.55
2022-12-18T17:24:43.680Z,31.67
2022-12-18T17:27:12.189Z,27.23
2022-12-18T17:30:07.089Z,30.50
2022-12-18T17:33:10.987Z,34.05
2022-12-18T17:35:42.397Z,31.20
2022-12-18T17:38:09.494Z,30.67
2022-12-18T17:40:39.706Z,31.55
2022-12-18T17:43:11.585Z,28.58
2022-12-18T17:45:40.198Z,28.90
2022-12-18T17:48:09.251Z,31.40
2022-12-18T17:50:48.562Z,28.05
2022-12-18T17:53:15.535Z,27.83
2022-12-18T17:55:42.535Z,30.83
2022-12-18T17:58:09.830Z,30.75
2022-12-18T18:00:39.310Z,32.22
2022-12-18T18:03:06.792Z,28.95
2022-12-18T18:05:34.022Z,30.42
2022-12-18T18:08:01.075Z,27.02
2022-12-18T18:10:28.167Z,28.10
2022-12-18T18:13:13.599Z,28.98
2022-12-18T18:15:41.159Z,29.17
2022-12-18T18:18:08.597Z,35.03
2022-12-18T18:20:40.845Z,32.08
2022-12-18T18:23:09.343Z,29.98
2022-12-18T18:25:37.741Z,28.70
2022-12-18T18:28:05.093Z,31.58
2022-12-18T18:30:32.406Z,31.80
2022-12-18T18:33:00.914Z,27.67
2022-12-18T18:35:52.992Z,27.85
2022-12-18T18:38:16.189Z,35.28
2022-12-18T18:40:43.288Z,33.15
2022-12-18T18:43:12.375Z,30.15
2022-12-18T18:45:39.286Z,32.72
2022-12-18T18:48:07.526Z,29.67
2022-12-18T18:50:35.606Z,25.65
2022-12-18T18:53:03.166Z,28.88
2022-12-18T18:55:33.686Z,31.05
2022-12-18T18:58:01.975Z,32.72
2022-12-18T19:00:32.604Z,30.20
2022-12-18T19:03:00.871Z,31.20
2022-12-18T19:05:28.148Z,30.10
2022-12-18T19:07:56.408Z,33.92
2022-12-18T19:10:23.464Z,32.85
2022-12-18T19:13:24.927Z,30.35
2022-12-18T19:16:09.534Z,31.48
2022-12-18T19:18:38.638Z,31.10
2022-12-18T19:21:06.984Z,30.55
2022-12-18T19:23:34.742Z,41.65
2022-12-18T19:29:06.190Z,32.35
2022-12-18T19:31:36.366Z,30.52
2022-12-18T19:34:06.748Z,30.63
2022-12-18T19:36:37.270Z,33.20
2022-12-18T19:39:11.235Z,28.42
2022-12-18T19:41:39.926Z,32.30
2022-12-18T19:44:08.675Z,30.57
2022-12-18T19:46:36.243Z,34.72
2022-12-18T19:49:07.762Z,31.80
2022-12-18T19:51:36.218Z,32.33
2022-12-18T19:54:04.502Z,31.13
2022-12-18T19:56:33.637Z,31.88
2022-12-18T20:01:29.679Z,33.33
2022-12-18T20:03:58.066Z,28.40
2022-12-18T20:06:33.183Z,34.00
2022-12-18T20:09:06.357Z,30.90
2022-12-18T20:11:41.200Z,34.72
2022-12-18T20:14:14.393Z,34.60
2022-12-18T20:16:43.415Z,30.65
2022-12-18T20:19:13.068Z,33.92
2022-12-18T20:21:41.644Z,29.52
2022-12-18T20:24:09.095Z,36.25
2022-12-18T20:26:37.306Z,32.78
2022-12-18T20:29:06.859Z,34.72
2022-12-18T20:31:33.944Z,38.10
2022-12-18T20:34:02.605Z,35.83
2022-12-18T20:36:32.853Z,32.92
2022-12-18T20:39:02.613Z,39.53
2022-12-18T20:41:36.052Z,35.20
2022-12-18T20:44:22.977Z,36.10
2022-12-18T20:46:56.855Z,35.38
2022-12-18T20:49:25.914Z,35.05
2022-12-18T20:51:54.642Z,35.83
2022-12-18T20:54:24.131Z,34.70
2022-12-18T20:59:18.321Z,28.33
2022-12-18T21:01:48.277Z,33.40
2022-12-18T21:04:18.010Z,32.63
2022-12-18T21:06:50.943Z,29.63
2022-12-18T21:09:19.537Z,33.97
2022-12-18T21:12:05.060Z,31.05
2022-12-18T21:14:32.541Z,31.98
2022-12-18T21:17:02.903Z,35.17
2022-12-18T21:19:30.093Z,34.25
2022-12-18T21:21:58.016Z,34.33
2022-12-18T21:24:25.604Z,33.80
2022-12-18T21:26:52.633Z,29.10
2022-12-18T21:29:22.751Z,28.92
2022-12-18T21:31:50.879Z,29.00
2022-12-18T21:34:21.608Z,31.10
2022-12-18T21:36:49.780Z,35.15
2022-12-18T21:39:16.892Z,31.08
2022-12-18T21:42:03.078Z,28.55
2022-12-18T21:44:30.846Z,33.03
2022-12-18T21:47:12.299Z,20.05
2022-12-18T21:49:49.381Z,29.15
2022-12-18T21:52:17.257Z,32.55
2022-12-18T21:54:44.391Z,34.55
2022-12-18T21:57:13.985Z,32.97
2022-12-18T21:59:43.734Z,33.00
2022-12-18T22:02:20.047Z,30.00
2022-12-18T22:04:48.473Z,28.90
2022-12-18T22:07:16.861Z,33.25
2022-12-18T22:09:44.320Z,32.00
2022-12-18T22:12:33.698Z,28.40
2022-12-18T22:15:03.329Z,33.90
2022-12-18T22:17:30.938Z,29.95
2022-12-18T22:19:58.062Z,32.20
2022-12-18T22:22:25.532Z,29.17
2022-12-18T22:24:52.628Z,29.63
2022-12-18T22:27:19.718Z,32.92
2022-12-18T22:30:05.300Z,31.25
2022-12-18T22:32:35.264Z,33.00
2022-12-18T22:35:08.292Z,32.72
2022-12-18T22:37:41.332Z,28.10
2022-12-18T22:40:23.713Z,32.05
2022-12-18T22:42:53.223Z,29.25
2022-12-18T22:45:20.756Z,29.02
2022-12-18T22:47:47.775Z,33.25
2022-12-18T22:50:15.063Z,32.10
2022-12-18T22:52:42.423Z,31.00
2022-12-18T22:55:09.568Z,30.13
2022-12-18T22:57:36.722Z,30.02
2022-12-18T23:00:06.479Z,30.70
2022-12-18T23:02:33.532Z,29.03
2022-12-18T23:05:00.674Z,31.25
2022-12-18T23:07:27.766Z,32.33
2022-12-18T23:10:00.783Z,30.55
2022-12-18T23:12:29.859Z,29.33
2022-12-18T23:15:00.041Z,30.27
2022-12-18T23:17:27.078Z,32.15
2022-12-18T23:19:54.101Z,27.13
2022-12-18T23:22:21.251Z,30.50
2022-12-18T23:24:48.234Z,28.05
2022-12-18T23:27:15.402Z,29.67
2022-12-18T23:29:42.563Z,29.50
2022-12-18T23:32:12.358Z,30.10
2022-12-18T23:34:39.518Z,32.83
2022-12-18T23:37:06.605Z,27.67
2022-12-18T23:39:33.579Z,30.67
2022-12-18T23:42:00.935Z,27.25
2022-12-18T23:44:28.262Z,28.90
2022-12-18T23:46:56.270Z,29.17
2022-12-18T23:49:23.406Z,33.70
2022-12-18T23:51:50.620Z,27.73
2022-12-18T23:54:17.731Z,30.13
2022-12-18T23:57:00.771Z,32.15
2022-12-18T23:59:27.717Z,31.58
